createdAt,value
2019-05-10T11:18:53.114Z,342.60
2019-05-10T11:19:41.814Z,342.38
2019-05-10T11:28:44.201Z,340.57
2019-05-10T11:29:42.778Z,338.52
2019-05-10T11:31:14.970Z,331.37
2019-05-10T11:32:16.783Z,334.29
2019-05-10T11:33:53.614Z,331.95
2019-05-10T11:34:49.135Z,330.44
2019-05-10T11:36:21.142Z,327.42
2019-05-10T11:37:30.876Z,329.72
2019-05-10T11:38:58.578Z,324.74
2019-05-10T11:39:53.636Z,327.75
2019-05-10T11:41:24.720Z,323.51
2019-05-10T11:42:24.415Z,327.15
2019-05-10T11:43:57.941Z,323.00
2019-05-10T11:44:57.353Z,326.14
2019-05-10T11:46:28.943Z,321.85
2019-05-10T11:47:28.069Z,324.96
2019-05-10T11:49:01.750Z,321.36
2019-05-10T11:50:06.073Z,323.45
2019-05-10T11:51:32.698Z,320.28
2019-05-10T11:52:34.813Z,324.81
2019-05-10T11:54:05.464Z,321.81
2019-05-10T11:55:05.423Z,323.03
2019-05-10T11:56:37.221Z,319.38
2019-05-10T11:57:43.599Z,322.97
2019-05-10T11:59:15.917Z,320.42
2019-05-10T12:01:42.787Z,317.50
2019-05-10T12:03:01.501Z,319.64
2019-05-10T12:04:24.046Z,314.85
2019-05-10T12:05:20.503Z,320.11
2019-05-10T12:06:16.511Z,320.55
2019-05-10T12:07:15.504Z,321.76
2019-05-10T12:08:15.495Z,321.42
2019-05-10T12:09:15.488Z,319.76
2019-05-10T12:10:20.980Z,319.60
2019-05-10T12:11:27.481Z,318.87
2019-05-10T12:12:16.447Z,320.69
2019-05-10T12:13:19.858Z,318.70
2019-05-10T12:14:16.431Z,319.46
2019-05-10T12:15:15.411Z,318.18
2019-05-10T12:16:16.864Z,318.33
2019-05-10T12:17:15.407Z,319.02
2019-05-10T12:18:15.408Z,317.12
2019-05-10T12:19:20.724Z,319.69
2019-05-10T12:20:16.833Z,321.13
2019-05-10T12:21:15.350Z,318.65
2019-05-10T12:22:16.094Z,320.45
2019-05-10T12:23:22.798Z,318.12
2019-05-10T12:24:33.965Z,319.01
2019-05-10T12:25:36.001Z,319.68
2019-05-10T12:25:59.686Z,324.27
2019-05-10T12:27:14.028Z,317.61
2019-05-10T12:27:24.768Z,316.46
2019-05-10T12:28:24.070Z,316.34
2019-05-10T12:29:17.298Z,315.87
2019-05-10T12:30:16.030Z,315.33
2019-05-10T12:31:16.884Z,315.40
2019-05-10T12:32:15.225Z,315.85
2019-05-10T12:33:23.873Z,314.25
2019-05-10T12:34:16.212Z,313.95
2019-05-10T12:35:15.194Z,315.88
2019-05-10T12:36:23.619Z,314.13
2019-05-10T12:37:16.185Z,314.30
2019-05-10T12:38:15.175Z,313.98
2019-05-10T12:39:15.145Z,316.05
2019-05-10T12:40:15.552Z,316.07
2019-05-10T12:41:15.126Z,316.56
2019-05-10T12:42:15.113Z,314.72
2019-05-10T12:43:15.107Z,317.66
2019-05-10T12:44:15.090Z,317.54
2019-05-10T12:45:15.085Z,316.37
2019-05-10T12:46:15.064Z,316.08
2019-05-10T12:47:15.068Z,316.46
2019-05-10T12:48:15.178Z,315.63
2019-05-10T12:49:15.034Z,314.83
2019-05-10T12:50:15.028Z,319.05
2019-05-10T12:51:16.220Z,320.90
2019-05-10T12:52:16.230Z,319.24
2019-05-10T12:53:18.358Z,317.58
2019-05-10T12:54:18.419Z,313.69
2019-05-10T12:55:15.964Z,319.80
2019-05-10T12:56:15.027Z,316.89
2019-05-10T12:57:15.027Z,314.48
2019-05-10T12:58:14.960Z,317.66
2019-05-10T12:59:14.931Z,318.91
2019-05-10T13:00:15.935Z,315.82
2019-05-10T13:01:14.992Z,314.72
2019-05-10T13:02:14.891Z,314.33
2019-05-10T13:03:14.878Z,314.90
2019-05-10T13:04:17.023Z,312.51
2019-05-10T13:05:15.770Z,314.40
2019-05-10T13:06:14.847Z,317.08
2019-05-10T13:07:14.840Z,315.22
2019-05-10T13:08:14.828Z,316.09
2019-05-10T13:09:14.961Z,317.81
2019-05-10T13:10:14.865Z,317.20
2019-05-10T13:11:19.194Z,317.78
2019-05-10T13:12:15.783Z,317.34
2019-05-10T13:13:17.661Z,316.24
2019-05-10T13:14:15.756Z,315.10
2019-05-10T13:15:14.772Z,315.03
2019-05-10T13:16:14.751Z,318.58
2019-05-10T13:17:17.021Z,317.88
2019-05-10T13:18:14.737Z,317.63
2019-05-10T13:19:20.167Z,317.56
2019-05-10T13:20:15.699Z,314.73
2019-05-10T13:21:21.053Z,315.35
2019-05-10T13:22:15.665Z,318.29
2019-05-10T13:23:16.086Z,316.70
2019-05-10T13:24:14.651Z,315.72
2019-05-10T13:25:14.652Z,315.85
2019-05-10T13:26:14.624Z,315.94
2019-05-10T13:27:14.615Z,315.14
2019-05-10T13:28:14.607Z,316.04
2019-05-10T13:29:14.647Z,313.68
2019-05-10T13:30:14.617Z,314.56
2019-05-10T13:31:15.289Z,313.94
2019-05-10T13:32:20.118Z,314.36
2019-05-10T13:33:27.867Z,314.55
2019-05-10T13:34:15.540Z,313.17
2019-05-10T13:35:14.534Z,314.70
2019-05-10T13:36:14.692Z,315.09
2019-05-10T13:37:23.241Z,313.69
2019-05-10T13:38:15.489Z,315.69
2019-05-10T13:39:19.232Z,315.40
2019-05-10T13:40:15.454Z,314.74
2019-05-10T13:41:17.793Z,314.93
2019-05-10T13:42:15.531Z,314.55
2019-05-10T13:43:16.697Z,314.91
2019-05-10T13:44:15.422Z,312.85
2019-05-10T13:45:14.410Z,313.71
2019-05-10T13:46:14.396Z,313.15
2019-05-10T13:47:14.452Z,313.23
2019-05-10T13:48:14.374Z,312.17
2019-05-10T13:49:14.379Z,312.17
2019-05-10T13:50:14.558Z,313.96
2019-05-10T13:51:14.368Z,313.90
2019-05-10T13:52:14.384Z,312.76
2019-05-10T13:53:21.338Z,313.57
2019-05-10T13:54:15.409Z,314.04
2019-05-10T13:55:14.307Z,314.37
2019-05-10T13:56:14.290Z,314.45
2019-05-10T13:57:14.290Z,313.19
2019-05-10T13:58:14.276Z,314.58
2019-05-10T13:59:16.414Z,313.70
2019-05-10T14:00:14.579Z,314.87
2019-05-10T14:01:14.851Z,315.34
2019-05-10T14:02:14.214Z,312.92
2019-05-10T14:03:16.705Z,314.20
2019-05-10T14:04:14.194Z,314.73
2019-05-10T14:05:17.584Z,313.78
2019-05-10T14:06:15.172Z,314.33
2019-05-10T14:07:14.160Z,314.45
2019-05-10T14:08:14.184Z,313.60
2019-05-10T14:09:14.149Z,313.27
2019-05-10T14:10:18.240Z,314.06
2019-05-10T14:11:15.119Z,315.85
2019-05-10T14:12:16.183Z,312.04
2019-05-10T14:13:16.896Z,312.35
2019-05-10T14:14:14.629Z,313.81
2019-05-10T14:15:15.154Z,313.40
2019-05-10T14:16:19.507Z,313.53
2019-05-10T14:17:15.050Z,311.83
2019-05-10T14:18:14.049Z,312.31
2019-05-10T14:19:15.887Z,312.92
2019-05-10T14:20:30.360Z,312.59
2019-05-10T14:21:15.010Z,312.94
2019-05-10T14:22:14.014Z,312.52
2019-05-10T14:23:17.562Z,312.01
2019-05-10T14:24:15.088Z,312.02
2019-05-10T14:25:13.971Z,312.33
2019-05-10T14:26:15.878Z,311.82
2019-05-10T14:27:13.939Z,311.74
2019-05-10T14:28:15.597Z,312.29
2019-05-10T14:29:13.917Z,312.22
2019-05-10T14:30:16.078Z,311.65
2019-05-10T14:31:13.896Z,313.18
2019-05-10T14:32:13.920Z,313.78
2019-05-10T14:33:14.764Z,313.01
2019-05-10T14:34:15.604Z,313.18
2019-05-10T14:35:16.421Z,314.47
2019-05-10T14:36:14.867Z,313.62
2019-05-10T14:37:19.205Z,312.50
2019-05-10T14:38:14.813Z,313.37
2019-05-10T14:39:13.812Z,312.43
2019-05-10T14:40:17.030Z,311.57
2019-05-10T14:41:14.793Z,311.37
2019-05-10T14:42:13.773Z,313.59
2019-05-10T14:43:13.765Z,312.12
2019-05-10T14:44:13.749Z,312.85
2019-05-10T14:45:13.832Z,312.07
2019-05-10T14:46:14.129Z,313.07
2019-05-10T14:47:13.846Z,312.24
2019-05-10T14:48:13.710Z,312.31
2019-05-10T14:49:13.700Z,313.47
2019-05-10T14:50:19.477Z,313.34
2019-05-10T14:51:14.780Z,314.65
2019-05-10T14:52:13.661Z,312.83
2019-05-10T14:53:13.649Z,311.08
2019-05-10T14:54:13.691Z,312.24
2019-05-10T14:55:13.729Z,313.02
2019-05-10T14:56:15.223Z,310.99
2019-05-10T14:57:13.606Z,310.31
2019-05-10T14:58:13.779Z,310.78
2019-05-10T14:59:13.581Z,311.35
2019-05-10T15:00:13.648Z,311.60
2019-05-10T15:01:13.570Z,310.55
2019-05-10T15:02:16.947Z,310.24
2019-05-10T15:03:14.549Z,309.47
2019-05-10T15:04:20.293Z,308.19
2019-05-10T15:05:18.025Z,309.74
2019-05-10T15:06:13.507Z,309.56
2019-05-10T15:07:14.261Z,309.78
2019-05-10T15:08:13.507Z,309.12
2019-05-10T15:09:22.085Z,310.13
2019-05-10T15:10:14.462Z,310.40
2019-05-10T15:11:13.446Z,309.18
2019-05-10T15:12:15.893Z,311.93
2019-05-10T15:13:19.801Z,308.80
2019-05-10T15:14:14.454Z,309.97
2019-05-10T15:15:13.399Z,309.20
2019-05-10T15:16:26.088Z,310.56
2019-05-10T15:17:14.377Z,307.79
2019-05-10T15:18:13.384Z,309.52
2019-05-10T15:19:13.372Z,308.29
2019-05-10T15:20:13.346Z,308.28
2019-05-10T15:21:13.346Z,308.58
2019-05-10T15:22:18.443Z,307.75
2019-05-10T15:23:14.319Z,308.48
2019-05-10T15:24:13.313Z,308.94
2019-05-10T15:25:13.300Z,308.42
2019-05-10T15:26:13.362Z,306.59
2019-05-10T15:27:16.129Z,306.05
2019-05-10T15:28:14.385Z,306.32
2019-05-10T15:29:14.776Z,305.68
2019-05-10T15:30:14.250Z,306.03
2019-05-10T15:31:13.241Z,305.93
2019-05-10T15:32:13.244Z,306.39
2019-05-10T15:33:13.302Z,305.38
2019-05-10T15:34:13.193Z,306.65
2019-05-10T15:35:13.175Z,306.23
2019-05-10T15:36:13.182Z,306.74
2019-05-10T15:37:13.164Z,305.79
2019-05-10T15:38:13.168Z,305.23
2019-05-10T15:39:13.134Z,305.29
2019-05-10T15:40:13.122Z,305.68
2019-05-10T15:41:16.884Z,307.15
2019-05-10T15:42:14.146Z,306.95
2019-05-10T15:43:17.359Z,307.03
2019-05-10T15:44:14.084Z,306.65
2019-05-10T15:45:14.665Z,306.99
2019-05-10T15:46:13.054Z,307.45
2019-05-10T15:47:20.419Z,308.17
2019-05-10T15:48:14.032Z,307.22
2019-05-10T15:49:13.604Z,309.10
2019-05-10T15:50:14.013Z,307.82
2019-05-10T15:51:16.937Z,308.24
2019-05-10T15:52:18.081Z,308.86
2019-05-10T15:53:12.991Z,307.96
2019-05-10T15:54:12.988Z,307.57
2019-05-10T15:55:16.465Z,307.98
2019-05-10T15:56:13.945Z,307.75
2019-05-10T15:57:14.593Z,307.08
2019-05-10T15:58:13.944Z,308.05
2019-05-10T15:59:18.770Z,307.34
2019-05-10T16:00:14.032Z,307.98
2019-05-10T16:01:14.415Z,307.29
2019-05-10T16:02:12.877Z,307.53
2019-05-10T16:03:12.875Z,307.48
2019-05-10T16:04:12.964Z,307.80
2019-05-10T16:05:24.089Z,307.94
2019-05-10T16:06:13.939Z,307.27
2019-05-10T16:07:14.547Z,307.92
2019-05-10T16:08:13.706Z,307.94
2019-05-10T16:09:17.491Z,306.85
2019-05-10T16:10:13.783Z,307.62
2019-05-10T16:11:18.888Z,307.79
2019-05-10T16:12:13.761Z,307.27
2019-05-10T16:13:14.509Z,308.09
2019-05-10T16:14:13.743Z,307.04
2019-05-10T16:15:19.342Z,308.01
2019-05-10T16:16:13.714Z,308.52
2019-05-10T16:17:17.585Z,307.62
2019-05-10T16:18:13.695Z,307.77
2019-05-10T16:19:17.931Z,308.18
2019-05-10T16:20:13.680Z,308.58
2019-05-10T16:21:15.133Z,309.12
2019-05-10T16:22:12.646Z,308.76
2019-05-10T16:23:12.647Z,308.90
2019-05-10T16:24:13.640Z,308.37
2019-05-10T16:25:12.615Z,307.77
2019-05-10T16:26:17.397Z,308.82
2019-05-10T16:27:13.594Z,308.74
2019-05-10T16:28:15.366Z,308.50
2019-05-10T16:29:13.579Z,308.60
2019-05-10T16:30:17.859Z,309.91
2019-05-10T16:31:13.549Z,309.34
2019-05-10T16:32:12.533Z,310.70
2019-05-10T16:33:15.740Z,310.34
2019-05-10T16:34:12.525Z,311.00
2019-05-10T16:35:14.542Z,309.85
2019-05-10T16:36:12.493Z,310.13
2019-05-10T16:37:12.497Z,308.83
2019-05-10T16:38:12.501Z,308.62
2019-05-10T16:39:12.491Z,307.73
2019-05-10T16:40:12.451Z,308.28
2019-05-10T16:41:12.478Z,308.26
2019-05-10T16:42:12.429Z,308.44
2019-05-10T16:43:13.995Z,307.28
2019-05-10T16:44:12.435Z,307.73
2019-05-10T16:45:12.405Z,306.91
2019-05-10T16:46:12.455Z,307.37
2019-05-10T16:47:12.382Z,306.26
2019-05-10T16:48:12.362Z,307.24
2019-05-10T16:49:15.497Z,307.19
2019-05-10T16:50:12.372Z,307.88
2019-05-10T16:51:12.713Z,308.01
2019-05-10T16:52:12.492Z,308.77
2019-05-10T16:53:12.302Z,308.20
2019-05-10T16:54:13.582Z,308.66
2019-05-10T16:55:12.291Z,309.06
2019-05-10T16:56:13.415Z,308.51
2019-05-10T16:57:13.271Z,308.75
2019-05-10T16:58:15.287Z,308.31
2019-05-10T16:59:13.347Z,308.86
2019-05-10T17:00:12.222Z,309.27
2019-05-10T17:01:12.336Z,307.29
2019-05-10T17:02:12.211Z,309.28
2019-05-10T17:03:13.230Z,308.48
2019-05-10T17:04:13.338Z,309.11
2019-05-10T17:05:15.090Z,309.74
2019-05-10T17:06:12.162Z,308.43
2019-05-10T17:07:18.139Z,309.37
2019-05-10T17:08:13.131Z,308.55
2019-05-10T17:09:18.348Z,308.04
2019-05-10T17:10:13.113Z,308.87
2019-05-10T17:11:12.109Z,309.17
2019-05-10T17:12:12.100Z,309.46
2019-05-10T17:13:12.087Z,308.27
2019-05-10T17:14:12.566Z,307.94
2019-05-10T17:15:13.065Z,310.01
2019-05-10T17:16:17.210Z,309.13
2019-05-10T17:17:13.087Z,309.64
2019-05-10T17:18:17.167Z,308.95
2019-05-10T17:19:13.084Z,308.80
2019-05-10T17:20:14.789Z,309.60
2019-05-10T17:21:11.995Z,310.27
2019-05-10T17:22:11.984Z,309.97
2019-05-10T17:23:11.969Z,311.45
2019-05-10T17:24:11.963Z,310.74
2019-05-10T17:25:11.951Z,309.72
2019-05-10T17:26:11.973Z,309.98
2019-05-10T17:27:11.936Z,310.32
2019-05-10T17:28:11.919Z,310.31
2019-05-10T17:29:12.481Z,308.70
2019-05-10T17:30:11.892Z,309.23
2019-05-10T17:31:11.920Z,309.02
2019-05-10T17:32:11.924Z,309.91
2019-05-10T17:33:11.984Z,309.73
2019-05-10T17:34:22.146Z,308.48
2019-05-10T17:35:12.835Z,309.73
2019-05-10T17:36:14.554Z,307.53
2019-05-10T17:37:12.848Z,307.74
2019-05-10T17:38:14.052Z,307.96
2019-05-10T17:39:11.792Z,307.15
2019-05-10T17:40:12.289Z,306.74
2019-05-10T17:41:11.775Z,307.69
2019-05-10T17:42:11.758Z,308.18
2019-05-10T17:43:14.162Z,307.33
2019-05-10T17:44:17.494Z,308.23
2019-05-10T17:45:12.737Z,307.84
2019-05-10T17:46:12.676Z,307.63
2019-05-10T17:47:12.802Z,308.62
2019-05-10T17:48:11.828Z,308.03
2019-05-10T17:49:11.697Z,306.95
2019-05-10T17:50:11.795Z,306.80
2019-05-10T17:51:11.711Z,307.34
2019-05-10T17:52:11.703Z,307.33
2019-05-10T17:53:11.637Z,307.83
2019-05-10T17:54:11.621Z,307.30
2019-05-10T17:55:16.880Z,306.51
2019-05-10T17:56:12.600Z,306.63
2019-05-10T17:57:16.734Z,306.25
2019-05-10T17:58:12.574Z,306.89
2019-05-10T17:59:13.771Z,305.34
2019-05-10T18:00:11.563Z,307.90
2019-05-10T18:01:11.541Z,307.82
2019-05-10T18:02:11.557Z,308.18
2019-05-10T18:03:11.529Z,307.59
2019-05-10T18:04:11.507Z,307.13
2019-05-10T18:05:11.501Z,307.48
2019-05-10T18:06:22.936Z,307.98
2019-05-10T18:07:12.475Z,307.58
2019-05-10T18:08:11.467Z,306.65
2019-05-10T18:09:11.499Z,307.34
2019-05-10T18:10:11.445Z,307.11
2019-05-10T18:11:11.573Z,306.78
2019-05-10T18:12:15.657Z,306.70
2019-05-10T18:13:12.411Z,307.08
2019-05-10T18:14:12.463Z,306.56
2019-05-10T18:15:12.390Z,308.46
2019-05-10T18:16:11.376Z,307.74
2019-05-10T18:17:11.405Z,308.22
2019-05-10T18:18:11.349Z,308.06
2019-05-10T18:19:11.336Z,307.34
2019-05-10T18:20:11.328Z,307.26
2019-05-10T18:21:15.973Z,307.48
2019-05-10T18:22:12.305Z,307.40
2019-05-10T18:23:20.115Z,307.15
2019-05-10T18:24:12.297Z,307.56
2019-05-10T18:25:19.558Z,307.47
2019-05-10T18:26:12.258Z,308.68
2019-05-10T18:27:11.263Z,308.89
2019-05-10T18:28:11.262Z,308.31
2019-05-10T18:29:11.224Z,307.89
2019-05-10T18:30:11.225Z,306.43
2019-05-10T18:31:11.309Z,307.31
2019-05-10T18:32:11.327Z,307.22
2019-05-10T18:33:12.281Z,306.73
2019-05-10T18:34:11.180Z,306.85
2019-05-10T18:35:14.434Z,307.93
2019-05-10T18:36:12.149Z,308.46
2019-05-10T18:37:15.760Z,307.97
2019-05-10T18:38:12.138Z,307.41
2019-05-10T18:39:15.525Z,307.98
2019-05-10T18:40:12.099Z,306.92
2019-05-10T18:41:11.825Z,307.81
2019-05-10T18:42:11.080Z,307.83
2019-05-10T18:43:11.074Z,308.14
2019-05-10T18:44:14.323Z,308.00
2019-05-10T18:45:11.044Z,306.58
2019-05-10T18:46:11.035Z,307.89
2019-05-10T18:47:11.024Z,307.59
2019-05-10T18:48:11.040Z,306.93
2019-05-10T18:49:11.012Z,307.15
2019-05-10T18:50:10.988Z,307.01
2019-05-10T18:51:11.000Z,306.33
2019-05-10T18:52:11.020Z,306.64
2019-05-10T18:53:11.045Z,306.29
2019-05-10T18:54:10.961Z,307.02
2019-05-10T18:55:10.930Z,304.91
2019-05-10T18:56:10.937Z,306.33
2019-05-10T18:57:15.554Z,306.90
2019-05-10T18:58:11.917Z,306.08
2019-05-10T18:59:10.895Z,305.87
2019-05-10T19:00:10.946Z,306.35
2019-05-10T19:01:10.870Z,306.64
2019-05-10T19:02:11.724Z,306.42
2019-05-10T19:03:11.841Z,307.57
2019-05-10T19:04:14.234Z,306.30
2019-05-10T19:05:13.421Z,306.66
2019-05-10T19:06:13.060Z,305.96
2019-05-10T19:07:10.806Z,306.14
2019-05-10T19:08:10.795Z,306.13
2019-05-10T19:09:10.779Z,306.41
2019-05-10T19:10:10.771Z,306.62
2019-05-10T19:11:10.797Z,306.98
2019-05-10T19:12:18.005Z,306.60
2019-05-10T19:13:12.017Z,305.97
2019-05-10T19:14:10.758Z,306.17
2019-05-10T19:15:15.400Z,307.59
2019-05-10T19:16:11.734Z,306.72
2019-05-10T19:17:11.133Z,306.80
2019-05-10T19:18:10.696Z,306.75
2019-05-10T19:19:10.674Z,307.11
2019-05-10T19:20:16.013Z,306.85
2019-05-10T19:21:11.648Z,307.69
2019-05-10T19:22:10.639Z,306.85
2019-05-10T19:23:13.068Z,306.59
2019-05-10T19:24:11.617Z,307.26
2019-05-10T19:25:12.143Z,307.26
2019-05-10T19:26:10.593Z,307.22
2019-05-10T19:27:10.579Z,307.31
2019-05-10T19:28:10.567Z,307.01
2019-05-10T19:29:10.558Z,306.08
2019-05-10T19:30:10.565Z,305.79
2019-05-10T19:31:10.613Z,308.05
2019-05-10T19:32:17.904Z,307.98
2019-05-10T19:33:11.551Z,307.05
2019-05-10T19:34:15.207Z,308.97
2019-05-10T19:35:11.510Z,308.76
2019-05-10T19:36:13.162Z,308.02
2019-05-10T19:37:10.476Z,310.11
2019-05-10T19:38:10.481Z,309.13
2019-05-10T19:39:10.459Z,310.76
2019-05-10T19:40:10.494Z,311.26
2019-05-10T19:41:10.423Z,311.49
2019-05-10T19:42:10.427Z,311.98
2019-05-10T19:43:15.270Z,311.15
2019-05-10T19:44:11.416Z,312.41
2019-05-10T19:45:12.813Z,312.03
2019-05-10T19:46:11.566Z,311.60
2019-05-10T19:47:11.170Z,310.72
2019-05-10T19:48:11.354Z,312.07
2019-05-10T19:49:13.118Z,311.62
2019-05-10T19:50:11.332Z,310.88
2019-05-10T19:51:11.601Z,310.19
2019-05-10T19:52:10.316Z,310.23
2019-05-10T19:53:10.292Z,310.52
2019-05-10T19:54:13.629Z,309.40
2019-05-10T19:55:13.099Z,309.22
2019-05-10T19:56:11.352Z,310.01
2019-05-10T19:57:16.181Z,308.92
2019-05-10T19:58:11.325Z,309.79
2019-05-10T19:59:11.886Z,308.68
2019-05-10T20:00:10.213Z,309.20
2019-05-10T20:01:10.220Z,308.06
2019-05-10T20:02:10.193Z,308.28
2019-05-10T20:03:10.178Z,308.23
2019-05-10T20:04:10.200Z,307.76
2019-05-10T20:05:10.166Z,308.28
2019-05-10T20:06:10.190Z,307.37
2019-05-10T20:07:10.149Z,308.53
2019-05-10T20:08:10.128Z,308.07
2019-05-10T20:09:10.298Z,307.03
2019-05-10T20:10:10.103Z,307.94
2019-05-10T20:11:10.108Z,308.17
2019-05-10T20:12:10.100Z,307.60
2019-05-10T20:13:10.729Z,307.34
2019-05-10T20:14:10.066Z,307.60
2019-05-10T20:15:10.062Z,306.99
2019-05-10T20:16:10.049Z,307.90
2019-05-10T20:17:10.037Z,308.08
2019-05-10T20:18:10.202Z,307.42
2019-05-10T20:19:10.143Z,307.85
2019-05-10T20:20:10.015Z,308.31
2019-05-10T20:21:10.013Z,307.53
2019-05-10T20:22:09.976Z,307.58
2019-05-10T20:23:09.974Z,307.06
2019-05-10T20:24:09.952Z,307.69
2019-05-10T20:25:09.998Z,307.88
2019-05-10T20:26:09.937Z,307.54
2019-05-10T20:27:09.918Z,308.04
2019-05-10T20:28:09.983Z,307.85
2019-05-10T20:29:09.905Z,307.16
2019-05-10T20:30:09.907Z,306.69
2019-05-10T20:31:09.875Z,308.19
2019-05-10T20:32:09.931Z,307.56
2019-05-10T20:33:09.858Z,307.55
2019-05-10T20:34:09.841Z,307.38
2019-05-10T20:35:09.854Z,307.17
2019-05-10T20:36:09.862Z,306.66
2019-05-10T20:37:09.822Z,307.51
2019-05-10T20:38:09.836Z,307.61
2019-05-10T20:39:09.804Z,307.72
2019-05-10T20:40:09.887Z,307.14
2019-05-10T20:41:09.771Z,306.58
2019-05-10T20:42:10.603Z,307.54
2019-05-10T20:43:09.745Z,308.36
2019-05-10T20:44:09.735Z,307.96
2019-05-10T20:45:09.717Z,307.41
2019-05-10T20:46:11.463Z,308.51
2019-05-10T20:47:09.721Z,307.26
2019-05-10T20:48:09.698Z,308.65
2019-05-10T20:49:09.736Z,306.46
2019-05-10T20:50:09.677Z,307.36
2019-05-10T20:51:09.658Z,307.66
2019-05-10T20:52:09.669Z,308.18
2019-05-10T20:53:09.655Z,307.08
2019-05-10T20:54:09.627Z,307.07
2019-05-10T20:55:09.613Z,306.95
2019-05-10T20:56:09.605Z,307.85
2019-05-10T20:57:09.733Z,306.58
2019-05-10T20:58:09.596Z,306.32
2019-05-10T20:59:09.576Z,307.47
2019-05-10T21:00:09.586Z,306.95
2019-05-10T21:01:09.554Z,308.21
2019-05-10T21:02:09.546Z,307.75
2019-05-10T21:03:09.564Z,306.91
2019-05-10T21:04:09.507Z,307.26
2019-05-10T21:05:09.502Z,307.11
2019-05-10T21:06:09.505Z,306.41
2019-05-10T21:07:09.478Z,307.36
2019-05-10T21:08:16.895Z,307.87
2019-05-10T21:09:10.486Z,306.77
2019-05-10T21:10:09.457Z,306.48
2019-05-10T21:11:09.434Z,307.77
2019-05-10T21:12:09.419Z,307.33
2019-05-10T21:13:09.411Z,307.23
2019-05-10T21:14:09.397Z,307.28
2019-05-10T21:15:09.392Z,307.28
2019-05-10T21:16:09.379Z,307.84
2019-05-10T21:17:09.483Z,306.87
2019-05-10T21:18:09.368Z,307.05
2019-05-10T21:19:09.358Z,306.97
2019-05-10T21:20:09.333Z,306.36
2019-05-10T21:21:09.318Z,307.15
2019-05-10T21:22:09.329Z,306.98
2019-05-10T21:23:09.339Z,306.81
2019-05-10T21:24:09.288Z,306.64
2019-05-10T21:25:09.410Z,306.04
2019-05-10T21:26:09.269Z,306.64
2019-05-10T21:27:09.255Z,307.15
2019-05-10T21:28:09.244Z,308.14
2019-05-10T21:29:09.239Z,307.32
2019-05-10T21:30:09.222Z,306.92
2019-05-10T21:31:09.218Z,307.51
2019-05-10T21:32:09.216Z,307.34
2019-05-10T21:33:09.202Z,307.80
2019-05-10T21:34:10.234Z,308.09
2019-05-10T21:35:09.224Z,307.19
2019-05-10T21:36:09.152Z,307.22
2019-05-10T21:37:09.144Z,307.00
2019-05-10T21:38:09.226Z,307.37
2019-05-10T21:39:09.153Z,307.34
2019-05-10T21:40:09.126Z,307.06
2019-05-10T21:41:09.109Z,307.58
2019-05-10T21:42:09.158Z,306.68
2019-05-10T21:43:09.077Z,307.94
2019-05-10T21:44:09.065Z,306.67
2019-05-10T21:45:09.069Z,307.53
2019-05-10T21:46:09.054Z,306.08
2019-05-10T21:47:09.049Z,306.03
2019-05-10T21:48:09.022Z,306.57
2019-05-10T21:49:09.012Z,306.72
2019-05-10T21:50:09.088Z,307.25
2019-05-10T21:51:08.995Z,306.65
2019-05-10T21:52:08.991Z,307.32
2019-05-10T21:53:08.970Z,307.07
2019-05-10T21:54:08.960Z,307.80
2019-05-10T21:55:08.949Z,307.99
2019-05-10T21:56:08.958Z,306.73
2019-05-10T21:57:08.936Z,306.92
2019-05-10T21:58:08.934Z,307.31
2019-05-10T21:59:08.897Z,307.18
2019-05-10T22:00:08.922Z,307.94
2019-05-10T22:01:08.884Z,307.54
2019-05-10T22:02:08.882Z,306.98
2019-05-10T22:03:08.888Z,307.89
2019-05-10T22:04:08.861Z,308.10
2019-05-10T22:05:08.835Z,306.25
2019-05-10T22:06:08.819Z,307.67
2019-05-10T22:07:08.844Z,308.03
2019-05-10T22:08:08.824Z,307.73
2019-05-10T22:09:09.747Z,307.74
2019-05-10T22:10:08.772Z,307.84
2019-05-10T22:11:08.780Z,307.33
2019-05-10T22:12:08.754Z,307.53
2019-05-10T22:13:08.746Z,307.09
2019-05-10T22:14:08.821Z,306.90
2019-05-10T22:15:08.780Z,307.74
2019-05-10T22:16:08.710Z,307.52
2019-05-10T22:17:08.703Z,307.27
2019-05-10T22:18:08.688Z,308.48
2019-05-10T22:19:08.689Z,308.70
2019-05-10T22:20:08.669Z,308.09
2019-05-10T22:21:08.700Z,308.54
2019-05-10T22:22:08.646Z,308.14
2019-05-10T22:23:08.641Z,307.23
2019-05-10T22:24:08.630Z,307.90
2019-05-10T22:25:08.612Z,307.33
2019-05-10T22:26:08.605Z,307.88
2019-05-10T22:27:08.587Z,306.63
2019-05-10T22:28:08.573Z,307.57
2019-05-10T22:29:08.564Z,307.94
2019-05-10T22:30:11.984Z,306.82
2019-05-10T22:31:08.568Z,307.60
2019-05-10T22:32:08.561Z,307.13
2019-05-10T22:33:08.519Z,306.70
2019-05-10T22:34:08.512Z,307.29
2019-05-10T22:35:08.543Z,307.35
2019-05-10T22:36:08.498Z,306.83
2019-05-10T22:37:08.479Z,306.22
2019-05-10T22:38:08.467Z,307.88
2019-05-10T22:39:08.460Z,306.71
2019-05-10T22:40:08.455Z,306.48
2019-05-10T22:41:08.430Z,307.04
2019-05-10T22:42:08.426Z,306.67
2019-05-10T22:43:08.419Z,307.20
2019-05-10T22:44:08.397Z,307.01
2019-05-10T22:45:08.389Z,306.35
2019-05-10T22:46:08.381Z,306.84
2019-05-10T22:47:08.370Z,307.00
2019-05-10T22:48:08.359Z,306.04
2019-05-10T22:49:08.343Z,306.44
2019-05-10T22:50:08.384Z,306.98
2019-05-10T22:51:15.309Z,307.00
2019-05-10T22:52:08.334Z,307.18
2019-05-10T22:53:08.306Z,307.42
2019-05-10T22:54:08.479Z,307.89
2019-05-10T22:55:08.403Z,308.99
2019-05-10T22:56:08.310Z,307.12
2019-05-10T22:57:08.286Z,307.13
2019-05-10T22:58:08.654Z,307.84
2019-05-10T22:59:08.513Z,307.18
2019-05-10T23:00:08.227Z,307.52
2019-05-10T23:01:08.252Z,307.46
2019-05-10T23:02:08.200Z,307.21
2019-05-10T23:03:08.374Z,307.43
2019-05-10T23:04:08.175Z,306.83
2019-05-10T23:05:08.266Z,306.77
2019-05-10T23:06:08.149Z,307.79
2019-05-10T23:07:08.140Z,307.44
2019-05-10T23:08:08.128Z,307.91
2019-05-10T23:09:23.622Z,307.18
2019-05-10T23:10:09.140Z,306.98
2019-05-10T23:11:08.104Z,307.25
2019-05-10T23:12:08.087Z,306.86
2019-05-10T23:13:08.074Z,306.81
2019-05-10T23:14:08.065Z,306.55
2019-05-10T23:15:08.073Z,306.73
2019-05-10T23:16:08.098Z,307.07
2019-05-10T23:17:08.070Z,307.37
2019-05-10T23:18:08.023Z,306.73
2019-05-10T23:19:08.006Z,306.78
2019-05-10T23:20:08.006Z,309.77
2019-05-10T23:21:08.042Z,307.29
2019-05-10T23:22:07.986Z,306.43
2019-05-10T23:23:07.968Z,306.04
2019-05-10T23:24:07.968Z,307.03
2019-05-10T23:25:07.956Z,307.09
2019-05-10T23:26:08.634Z,307.81
2019-05-10T23:27:07.941Z,306.92
2019-05-10T23:28:07.918Z,306.97
2019-05-10T23:29:07.899Z,307.26
2019-05-10T23:30:07.964Z,307.85
2019-05-10T23:31:07.882Z,308.31
2019-05-10T23:32:07.868Z,309.14
2019-05-10T23:33:07.858Z,308.84
2019-05-10T23:34:07.859Z,309.53
2019-05-10T23:35:07.828Z,309.10
2019-05-10T23:36:07.890Z,309.47
2019-05-10T23:37:07.830Z,308.84
2019-05-10T23:38:07.792Z,309.30
2019-05-10T23:39:07.825Z,309.83
2019-05-10T23:40:07.803Z,308.81
2019-05-10T23:41:07.764Z,309.18
2019-05-10T23:42:07.784Z,308.94
2019-05-10T23:43:07.766Z,308.36
2019-05-10T23:44:07.746Z,308.11
2019-05-10T23:45:07.738Z,307.53
2019-05-10T23:46:07.746Z,307.93
2019-05-10T23:47:07.696Z,308.60
2019-05-10T23:48:07.687Z,307.53
2019-05-10T23:49:07.680Z,307.67
2019-05-10T23:50:07.663Z,307.87
2019-05-10T23:51:07.666Z,307.75
2019-05-10T23:52:07.802Z,307.15
2019-05-10T23:53:07.652Z,306.83
2019-05-10T23:54:07.676Z,307.86
2019-05-10T23:55:07.606Z,306.98
2019-05-10T23:56:07.607Z,309.06
2019-05-10T23:57:07.587Z,307.41
2019-05-10T23:58:07.573Z,308.02
2019-05-10T23:59:08.202Z,306.83
